My Meet Scores
Ellasyn Boshardt, IGI Gymnastics - MyMeetScores.com
Top100 | Top Teams | Upcoming Meets | Completed Meets | Latest | Add Scores | Help| Support | Bookmark and Share

Ellasyn Boshardt, IGI Gymnastics
Personal Bests
LevelVault BarsBeamFloorAA
39.0259.000 9.3759.10035.850
48.9259.100 9.6509.15036.700
Meet Scores
Date Meet Team Session Level Division Vault Bars Beam Floor AA
2019-03-22 Illinois Gymnastics State Championships IGI Gymnastics 6 4 YT C 8.800 16T 9.100 13 9.650 4T 9.150 9T 36.700 11
2019-02-15 Presidential Classic IGI Gymnastics R16 4 L4 R16 g3 8.250 9T 9.050 4 9.375 2T 8.800 7 35.475 4
2019-02-08 IGI Chicago Style 2019 IGI Gymnastics 14 4 213 Lakeshore L4 B 8.400 13 8.650 17 8.750 15 8.900 10 34.700 14
2019-01-25 King Arthur Invitational IGI Gymnastics 11 4 JR B 8.500 8 8.750 7 9.175 5T 9.150 4 35.575 6
2019-01-11 St Jude Benefit Meet IGI Gymnastics 4A 4 Jr B 8.150 13 8.400 6T 9.100 5T 9.000 8 34.650 8
2018-12-07 St. Nick Invite 2018 IGI Gymnastics 5A 4 JrB 8.925 8 8.600 12T 8.925 9 9.100 6T 35.550 10
2018-03-08 Level 4 & 5 State Infinity Gymnastics Academy All 4 Ch C 7.675 27 7.600 26 9.125 9T 8.200 27 32.600 26
2018-02-23 Kinetic Classic Infinity Gymnastics Academy 7 4 Younger 7.400 92 8.025 78 8.800 58T 8.425 76 32.650 84
2018-02-17 Women's Midwest Open Infinity Gymnastics Academy 08 4 JR A 8.275 14 8.350 12 8.950 6T 8.700 9T 34.275 10
2018-02-02 Chris Waller's Heart Of A Champion Invitational Infinity Gymnastics Academy 12H 4 Jr A 7.550 13 8.025 9 8.550 9 8.425 11 32.550 10
2018-01-18 Circle Of Stars Gymnastics Invitational Infinity Gymnastics Academy C3 4 Jr A 8.000 18T 8.525 17 9.050 7 8.000 19 33.575 18
2018-01-12 St Jude Benefit Meet Infinity Gymnastics Academy 3A 4 JrA 7.450 18 8.400 15 8.500 17 7.800 17 32.150 17
2017-12-14 2017 Women's Hawaiian Pineapple Classic Infinity Gymnastics Academy 1A 4 Ages8U 6.650 16 7.000 14 8.500 10 8.125 12 30.275 13
2017-11-10 Illinois NAWGJ Judges Cup 2017 Infinity Gymnastics Academy G3 4 All Ages 7.750 58T 7.750 56T 7.950 65T 7.850 62 31.300 63T
2017-03-30 2017 Illinois Level 3 & 5 State Infinity Gymnastics Academy All 3 Ch D 9.025 27T 8.450 26T 9.375 3 9.000 16 35.850 20
2017-03-10 Lucky Invitational Infinity Gymnastics Academy B02 3 Jr A 8.300 19 8.200 16 7.525 18 8.875 17 32.900 18
2017-02-24 Houston National Invitational - Ocean View Infinity Gymnastics Academy O03 3 Jr B 8.450 9T 8.875 6 7.875 9 9.100 6 34.300 8
2017-02-10 IGI Chicago Style Gymnastics Meet Infinity Gymnastics Academy 232L 3 JrA 8.900 20 8.050 18 8.475 17 8.050 22 33.475 22
2017-01-28 Wisconsin Dells Gymnastics Vacation Classic - USAG Infinity Gymnastics Academy B6 3 Children 8.700 10 8.650 9 8.800 3T 7.825 11 33.975 9
2017-01-13 St Jude Benefit Meet Infinity Gymnastics Academy 9A 3 Jr A 8.600 16 9.000 8 8.150 8 8.350 15 34.100 13
2016-12-15 2016 Hawaiian Pineapple Sanction Infinity Gymnastics Academy 5B 3 Ages 7U 8.450 7 7.250 5T 8.700 2 8.450 5 32.850 5
2016-11-11 2016 Illinois Judges Cup Infinity Gymnastics Academy B6 3 9 and Unde 8.750 14 0.000 14 7.600 13 7.550 13 23.900 14
Get your scores on
a t-shirt, pin, or hoodie